createdAt,value
2022-07-30T00:00:13.372Z,1.40
2022-07-30T00:03:49.432Z,1.00
2022-07-30T00:07:15.380Z,1.20
2022-07-30T00:10:39.407Z,0.90
2022-07-30T00:14:04.359Z,1.13
2022-07-30T00:17:28.411Z,1.00
2022-07-30T00:20:52.363Z,1.15
2022-07-30T00:24:16.358Z,0.90
2022-07-30T00:27:43.381Z,0.90
2022-07-30T00:31:07.512Z,0.95
2022-07-30T00:34:31.372Z,1.10
2022-07-30T00:37:55.436Z,0.93
2022-07-30T00:41:13.192Z,0.90
2022-07-30T00:44:33.421Z,1.08
2022-07-30T00:47:58.356Z,1.02
2022-07-30T00:51:22.363Z,1.23
2022-07-30T00:54:46.383Z,0.98
2022-07-30T00:58:10.378Z,0.82
2022-07-30T01:01:34.398Z,0.95
2022-07-30T01:04:58.410Z,0.90
2022-07-30T01:08:22.343Z,0.90
2022-07-30T01:11:57.431Z,0.90
2022-07-30T01:15:24.367Z,0.95
2022-07-30T01:19:08.420Z,1.00
2022-07-30T01:22:41.356Z,0.90
2022-07-30T01:26:20.414Z,0.90
2022-07-30T01:29:46.413Z,1.50
2022-07-30T01:33:11.393Z,1.00
2022-07-30T01:36:38.441Z,1.00
2022-07-30T01:40:04.460Z,0.80
2022-07-30T01:43:22.943Z,0.80
2022-07-30T01:46:42.444Z,1.15
2022-07-30T01:50:11.014Z,0.73
2022-07-30T01:53:39.424Z,0.88
2022-07-30T01:57:03.631Z,1.08
2022-07-30T02:00:28.454Z,0.95
2022-07-30T02:03:53.550Z,1.10
2022-07-30T02:07:29.411Z,1.02
2022-07-30T02:11:06.415Z,1.10
2022-07-30T02:14:58.636Z,0.90
2022-07-30T02:18:32.395Z,0.82
2022-07-30T02:22:04.410Z,0.90
2022-07-30T02:25:34.431Z,1.00
2022-07-30T02:29:03.463Z,0.98
2022-07-30T02:32:30.428Z,1.30
2022-07-30T02:35:56.578Z,0.85
2022-07-30T02:39:21.396Z,1.00
2022-07-30T02:42:47.410Z,1.10
2022-07-30T02:46:09.027Z,1.08
2022-07-30T02:49:53.496Z,1.10
2022-07-30T02:53:22.400Z,0.90
2022-07-30T02:56:46.417Z,1.52
2022-07-30T03:00:11.452Z,1.10
2022-07-30T03:03:37.463Z,1.25
2022-07-30T03:07:07.976Z,1.20
2022-07-30T03:10:32.438Z,1.23
2022-07-30T03:13:56.459Z,0.98
2022-07-30T03:17:21.487Z,0.90
2022-07-30T03:20:46.446Z,0.88
2022-07-30T03:24:11.453Z,1.00
2022-07-30T03:27:35.406Z,0.95
2022-07-30T03:30:58.572Z,0.80
2022-07-30T03:34:25.403Z,0.88
2022-07-30T03:37:51.459Z,0.90
2022-07-30T03:41:15.429Z,0.95
2022-07-30T03:44:39.453Z,0.70
2022-07-30T03:47:58.087Z,1.83
2022-07-30T03:51:18.495Z,2.30
2022-07-30T03:54:44.406Z,1.10
2022-07-30T03:58:26.450Z,1.27
2022-07-30T04:01:50.455Z,1.48
2022-07-30T04:05:37.787Z,1.98
2022-07-30T04:09:07.482Z,1.90
2022-07-30T04:12:32.471Z,1.20
2022-07-30T04:16:40.344Z,1.10
2022-07-30T04:19:53.500Z,1.73
2022-07-30T04:23:18.449Z,1.38
2022-07-30T04:26:43.464Z,1.90
2022-07-30T04:30:09.508Z,2.55
2022-07-30T04:33:34.494Z,3.40
2022-07-30T04:37:05.441Z,4.10
2022-07-30T04:40:30.465Z,2.00
2022-07-30T04:43:55.438Z,1.77
2022-07-30T04:47:21.502Z,2.55
2022-07-30T04:51:27.083Z,3.38
2022-07-30T04:55:01.604Z,6.45
2022-07-30T04:58:27.459Z,7.40
2022-07-30T05:01:51.557Z,7.18
2022-07-30T05:05:16.469Z,10.10
2022-07-30T05:08:41.524Z,17.50
2022-07-30T05:12:09.442Z,16.80
2022-07-30T05:15:36.945Z,7.78
2022-07-30T05:19:02.493Z,4.00
2022-07-30T05:22:35.571Z,4.18
2022-07-30T05:26:00.524Z,6.65
2022-07-30T05:29:32.531Z,9.23
2022-07-30T05:33:03.558Z,9.65
2022-07-30T05:36:27.527Z,7.00
2022-07-30T05:40:02.906Z,15.75
2022-07-30T05:43:47.530Z,12.10
2022-07-30T05:47:22.739Z,21.80
2022-07-30T05:50:47.532Z,22.00
2022-07-30T05:54:05.641Z,19.63
2022-07-30T05:58:00.530Z,10.40
2022-07-30T06:01:25.575Z,8.40
2022-07-30T06:04:55.558Z,10.82
2022-07-30T06:08:19.510Z,16.67
2022-07-30T06:11:44.473Z,11.77
2022-07-30T06:15:09.555Z,10.90
2022-07-30T06:18:33.473Z,7.45
2022-07-30T06:22:07.090Z,4.85
2022-07-30T06:25:37.537Z,3.80
2022-07-30T06:29:05.545Z,2.90
2022-07-30T06:32:29.589Z,3.45
2022-07-30T06:35:53.490Z,4.00
2022-07-30T06:39:53.882Z,5.68
2022-07-30T06:43:29.506Z,5.30
2022-07-30T06:47:20.574Z,7.10
2022-07-30T06:50:45.522Z,10.45
2022-07-30T06:54:10.562Z,10.32
2022-07-30T06:57:46.066Z,13.00
2022-07-30T07:01:21.575Z,19.30
2022-07-30T07:04:46.580Z,18.00
2022-07-30T07:08:13.568Z,25.80
2022-07-30T07:11:42.580Z,21.35
2022-07-30T07:15:09.493Z,12.15
2022-07-30T07:18:34.540Z,10.02
2022-07-30T07:21:58.536Z,8.73
2022-07-30T07:25:23.529Z,9.18
2022-07-30T07:28:48.568Z,7.32
2022-07-30T07:32:13.551Z,7.00
2022-07-30T07:35:48.995Z,8.45
2022-07-30T07:39:18.596Z,5.65
2022-07-30T07:42:43.492Z,4.22
2022-07-30T07:46:09.615Z,3.35
2022-07-30T07:49:33.498Z,2.13
2022-07-30T07:52:58.585Z,2.50
2022-07-30T07:56:23.505Z,1.90
2022-07-30T07:59:47.609Z,2.00
2022-07-30T08:03:17.574Z,3.10
2022-07-30T08:06:44.575Z,3.80
2022-07-30T08:10:43.568Z,4.22
2022-07-30T08:14:14.588Z,5.90
2022-07-30T08:17:56.604Z,5.00
2022-07-30T08:21:31.525Z,13.07
2022-07-30T08:24:55.607Z,9.82
2022-07-30T08:28:35.904Z,7.65
2022-07-30T08:32:01.831Z,8.13
2022-07-30T08:35:29.581Z,6.25
2022-07-30T08:38:54.526Z,4.80
2022-07-30T08:42:20.623Z,6.05
2022-07-30T08:45:45.610Z,5.43
2022-07-30T08:49:27.585Z,3.85
2022-07-30T08:52:52.696Z,4.82
2022-07-30T08:56:18.581Z,8.40
2022-07-30T08:59:59.105Z,7.10
2022-07-30T09:03:26.602Z,8.43
2022-07-30T09:06:52.552Z,6.68
2022-07-30T09:10:17.586Z,10.52
2022-07-30T09:13:43.566Z,8.00
2022-07-30T09:17:12.563Z,8.00
2022-07-30T09:20:37.606Z,9.27
2022-07-30T09:24:21.535Z,9.40
2022-07-30T09:28:18.581Z,10.23
2022-07-30T09:36:11.586Z,6.32
2022-07-30T09:40:31.439Z,5.50
2022-07-30T09:44:22.573Z,4.60
2022-07-30T09:47:57.560Z,5.03
2022-07-30T09:51:24.105Z,14.60
2022-07-30T09:55:06.614Z,5.18
2022-07-30T09:58:34.570Z,4.50
2022-07-30T10:02:04.121Z,9.38
2022-07-30T10:06:03.762Z,11.18
2022-07-30T10:09:47.075Z,10.65
2022-07-30T10:13:19.583Z,6.57
2022-07-30T10:16:46.595Z,5.30
2022-07-30T10:20:12.416Z,4.47
2022-07-30T10:27:38.639Z,5.18
2022-07-30T10:31:47.505Z,4.97
2022-07-30T10:34:59.609Z,4.25
2022-07-30T10:38:25.607Z,3.78
2022-07-30T10:42:10.651Z,3.58
2022-07-30T10:45:55.592Z,3.50
2022-07-30T10:49:29.640Z,2.55
2022-07-30T10:53:09.647Z,3.33
2022-07-30T10:56:37.612Z,5.35
2022-07-30T11:00:10.658Z,4.57
2022-07-30T11:03:40.295Z,2.90
2022-07-30T11:06:59.613Z,2.78
2022-07-30T11:10:49.635Z,2.10
2022-07-30T11:14:16.655Z,2.05
2022-07-30T11:17:40.610Z,2.40
2022-07-30T11:21:29.645Z,1.60
2022-07-30T11:25:12.513Z,1.90
2022-07-30T11:28:58.669Z,2.42
2022-07-30T11:32:44.601Z,3.05
2022-07-30T11:36:24.608Z,3.17
2022-07-30T11:40:09.630Z,2.13
2022-07-30T11:43:44.599Z,2.13
2022-07-30T11:47:08.622Z,1.27
2022-07-30T11:50:37.616Z,1.77
2022-07-30T11:54:01.645Z,1.80
2022-07-30T11:57:25.754Z,1.60
2022-07-30T12:01:02.591Z,1.10
2022-07-30T12:04:33.642Z,1.20
2022-07-30T12:07:57.645Z,1.40
2022-07-30T12:11:23.632Z,1.30
2022-07-30T12:14:53.605Z,1.40
2022-07-30T12:18:26.151Z,1.63
2022-07-30T12:21:53.381Z,1.50
2022-07-30T12:25:22.686Z,1.88
2022-07-30T12:28:47.604Z,1.15
2022-07-30T12:32:12.672Z,1.10
2022-07-30T12:35:36.677Z,1.15
2022-07-30T12:39:02.694Z,1.13
2022-07-30T12:42:36.662Z,1.10
2022-07-30T12:46:00.621Z,1.00
2022-07-30T12:49:25.702Z,1.15
2022-07-30T12:53:06.614Z,1.10
2022-07-30T12:56:36.690Z,1.10
2022-07-30T13:00:01.671Z,1.02
2022-07-30T13:03:49.740Z,1.05
2022-07-30T13:07:18.885Z,1.20
2022-07-30T13:10:36.698Z,1.00
2022-07-30T13:14:01.656Z,1.27
2022-07-30T13:17:25.644Z,1.10
2022-07-30T13:20:49.665Z,1.13
2022-07-30T13:24:19.693Z,1.02
2022-07-30T13:27:43.645Z,1.17
2022-07-30T13:31:07.682Z,1.05
2022-07-30T13:34:33.676Z,1.05
2022-07-30T13:37:57.684Z,1.00
2022-07-30T13:41:21.630Z,0.85
2022-07-30T13:44:45.668Z,1.08
2022-07-30T13:48:13.715Z,0.70
2022-07-30T13:51:37.678Z,0.98
2022-07-30T13:55:02.684Z,0.80
2022-07-30T13:58:26.667Z,0.80
2022-07-30T14:01:50.778Z,0.70
2022-07-30T14:05:17.617Z,0.90
2022-07-30T14:08:41.699Z,0.60
2022-07-30T14:12:05.687Z,0.70
2022-07-30T14:15:29.649Z,0.52
2022-07-30T14:18:53.706Z,0.88
2022-07-30T14:22:17.687Z,0.70
2022-07-30T14:25:41.665Z,0.60
2022-07-30T14:29:06.689Z,0.75
2022-07-30T14:32:32.779Z,0.63
2022-07-30T14:35:56.690Z,0.90
2022-07-30T14:39:21.701Z,0.80
2022-07-30T14:42:47.690Z,0.82
2022-07-30T14:46:12.679Z,0.98
2022-07-30T14:49:37.644Z,0.98
2022-07-30T14:53:01.658Z,1.00
2022-07-30T14:56:25.691Z,1.00
2022-07-30T14:59:49.671Z,0.90
2022-07-30T15:03:13.672Z,1.80
2022-07-30T15:06:36.718Z,2.03
2022-07-30T15:10:01.833Z,1.98
2022-07-30T15:13:26.705Z,1.45
2022-07-30T15:16:51.734Z,1.17
2022-07-30T15:20:16.713Z,1.15
2022-07-30T15:23:40.672Z,1.23
2022-07-30T15:27:04.742Z,1.75
2022-07-30T15:30:28.726Z,1.80
2022-07-30T15:33:52.662Z,1.50
2022-07-30T15:37:18.714Z,1.60
2022-07-30T15:40:41.692Z,1.65
2022-07-30T15:44:06.708Z,2.00
2022-07-30T15:47:31.671Z,1.98
2022-07-30T15:50:55.698Z,2.10
2022-07-30T15:54:22.640Z,1.50
2022-07-30T15:57:48.748Z,1.80
2022-07-30T16:01:13.761Z,1.50
2022-07-30T16:04:40.700Z,1.30
2022-07-30T16:08:06.691Z,1.67
2022-07-30T16:11:30.746Z,1.33
2022-07-30T16:14:56.706Z,1.50
2022-07-30T16:18:20.730Z,1.65
2022-07-30T16:21:44.687Z,1.40
2022-07-30T16:25:08.715Z,1.35
2022-07-30T16:28:32.674Z,1.40
2022-07-30T16:31:56.763Z,1.42
2022-07-30T16:35:20.723Z,1.40
2022-07-30T16:38:44.727Z,1.20
2022-07-30T16:42:08.740Z,1.30
2022-07-30T16:45:32.775Z,1.70
2022-07-30T16:48:56.809Z,1.70
2022-07-30T16:52:20.734Z,1.60
2022-07-30T16:55:44.687Z,1.27
2022-07-30T16:59:13.229Z,1.63
2022-07-30T17:02:38.724Z,1.27
2022-07-30T17:06:02.769Z,1.27
2022-07-30T17:09:27.730Z,1.30
2022-07-30T17:13:00.737Z,1.30
2022-07-30T17:16:29.708Z,1.30
2022-07-30T17:19:55.785Z,1.50
2022-07-30T17:23:29.808Z,1.20
2022-07-30T17:26:54.690Z,1.95
2022-07-30T17:30:20.795Z,1.42
2022-07-30T17:33:44.708Z,1.35
2022-07-30T17:37:09.897Z,1.52
2022-07-30T17:40:34.709Z,1.23
2022-07-30T17:43:59.790Z,1.30
2022-07-30T17:47:23.735Z,1.50
2022-07-30T17:50:49.760Z,1.30
2022-07-30T17:54:19.715Z,1.30
2022-07-30T17:57:43.771Z,1.50
2022-07-30T18:01:10.856Z,1.70
2022-07-30T18:04:34.858Z,1.42
2022-07-30T18:07:59.766Z,1.23
2022-07-30T18:11:23.769Z,1.35
2022-07-30T18:14:47.770Z,2.00
2022-07-30T18:18:13.808Z,2.83
2022-07-30T18:21:38.528Z,2.10
2022-07-30T18:25:02.799Z,1.67
2022-07-30T18:28:31.937Z,1.50
2022-07-30T18:31:55.762Z,1.55
2022-07-30T18:35:19.753Z,1.08
2022-07-30T18:38:43.823Z,1.08
2022-07-30T18:42:07.785Z,0.70
2022-07-30T18:45:36.965Z,0.70
2022-07-30T18:49:20.931Z,0.93
2022-07-30T18:52:46.809Z,0.70
2022-07-30T18:56:10.785Z,1.20
2022-07-30T18:59:34.768Z,1.13
2022-07-30T19:02:58.797Z,0.90
2022-07-30T19:06:24.760Z,0.77
2022-07-30T19:09:50.762Z,0.90
2022-07-30T19:13:14.820Z,1.00
2022-07-30T19:16:32.385Z,1.05
2022-07-30T19:19:49.918Z,1.10
2022-07-30T19:23:17.801Z,1.08
2022-07-30T19:26:41.806Z,1.00
2022-07-30T19:30:06.747Z,1.40
2022-07-30T19:33:31.958Z,1.00
2022-07-30T19:36:56.798Z,0.80
2022-07-30T19:40:20.837Z,0.88
2022-07-30T19:43:57.996Z,0.85
2022-07-30T19:47:22.790Z,0.80
2022-07-30T19:50:47.741Z,1.55
2022-07-30T19:54:13.867Z,0.90
2022-07-30T19:57:53.464Z,1.00
2022-07-30T20:01:23.020Z,1.20
2022-07-30T20:05:06.148Z,1.60
2022-07-30T20:08:34.784Z,1.42
2022-07-30T20:11:58.746Z,1.30
2022-07-30T20:15:23.832Z,1.95
2022-07-30T20:18:41.397Z,1.60
2022-07-30T20:21:58.925Z,1.10
2022-07-30T20:25:26.773Z,1.67
2022-07-30T20:28:52.577Z,1.00
2022-07-30T20:32:17.775Z,1.40
2022-07-30T20:35:42.816Z,1.10
2022-07-30T20:39:07.812Z,0.90
2022-07-30T20:42:31.783Z,1.33
2022-07-30T20:45:55.836Z,1.20
2022-07-30T20:53:05.780Z,1.30
2022-07-30T20:56:30.847Z,1.08
2022-07-30T20:59:55.070Z,1.08
2022-07-30T21:03:21.955Z,0.88
2022-07-30T21:06:51.822Z,1.20
2022-07-30T21:10:16.766Z,0.98
2022-07-30T21:13:41.408Z,1.00
2022-07-30T21:17:06.850Z,1.20
2022-07-30T21:20:28.667Z,0.90
2022-07-30T21:23:46.836Z,0.80
2022-07-30T21:27:13.298Z,1.10
2022-07-30T21:30:37.812Z,0.90
2022-07-30T21:34:03.773Z,1.65
2022-07-30T21:37:36.665Z,1.80
2022-07-30T21:41:00.772Z,1.25
2022-07-30T21:44:26.857Z,1.30
2022-07-30T21:47:51.847Z,1.40
2022-07-30T21:51:17.833Z,1.95
2022-07-30T21:54:48.442Z,2.60
2022-07-30T21:58:26.318Z,2.38
2022-07-30T22:01:50.802Z,1.73
2022-07-30T22:05:19.800Z,1.70
2022-07-30T22:08:49.201Z,1.50
2022-07-30T22:12:18.023Z,1.58
2022-07-30T22:15:42.853Z,1.35
2022-07-30T22:19:08.821Z,1.60
2022-07-30T22:22:36.189Z,1.65
2022-07-30T22:26:01.842Z,1.27
2022-07-30T22:29:26.005Z,1.35
2022-07-30T22:32:50.792Z,1.38
2022-07-30T22:36:16.883Z,1.40
2022-07-30T22:39:51.035Z,1.60
2022-07-30T22:43:34.899Z,1.95
2022-07-30T22:47:09.426Z,1.70
2022-07-30T22:50:44.874Z,2.40
2022-07-30T22:54:13.301Z,2.35
2022-07-30T22:57:40.238Z,1.73
2022-07-30T23:01:04.862Z,1.60
2022-07-30T23:04:29.862Z,1.77
2022-07-30T23:07:54.825Z,1.70
2022-07-30T23:11:18.830Z,1.65
2022-07-30T23:12:18.918Z,1.40
2022-07-30T23:14:44.847Z,2.05
2022-07-30T23:18:10.840Z,2.00
2022-07-30T23:21:35.811Z,1.25
2022-07-30T23:24:59.911Z,1.75
2022-07-30T23:28:24.866Z,1.73
2022-07-30T23:31:49.836Z,1.77
2022-07-30T23:35:14.844Z,1.60
2022-07-30T23:38:38.870Z,1.77
2022-07-30T23:42:03.860Z,1.80
2022-07-30T23:45:28.073Z,1.48
2022-07-30T23:48:51.830Z,2.00
2022-07-30T23:52:17.837Z,1.60
2022-07-30T23:55:43.857Z,2.00
2022-07-30T23:59:08.854Z,1.70
